sensor_id;sensor_type;location;lat;lon;timestamp;P1;durP1;ratioP1;P2;durP2;ratioP2
9370;SDS011;4725;48.384;8.984;2023-07-31T00:01:44;2.83;;;1.70;;
9370;SDS011;4725;48.384;8.984;2023-07-31T00:04:11;5.47;;;1.90;;
9370;SDS011;4725;48.384;8.984;2023-07-31T00:06:38;3.77;;;1.60;;
9370;SDS011;4725;48.384;8.984;2023-07-31T00:09:04;3.40;;;1.43;;
9370;SDS011;4725;48.384;8.984;2023-07-31T00:11:31;3.60;;;1.40;;
9370;SDS011;4725;48.384;8.984;2023-07-31T00:13:58;5.43;;;1.63;;
9370;SDS011;4725;48.384;8.984;2023-07-31T00:16:26;3.80;;;1.80;;
9370;SDS011;4725;48.384;8.984;2023-07-31T00:18:54;3.50;;;1.67;;
9370;SDS011;4725;48.384;8.984;2023-07-31T00:21:20;5.97;;;2.07;;
9370;SDS011;4725;48.384;8.984;2023-07-31T00:23:47;6.83;;;1.80;;
9370;SDS011;4725;48.384;8.984;2023-07-31T00:26:14;1.97;;;1.60;;
9370;SDS011;4725;48.384;8.984;2023-07-31T00:28:41;6.27;;;1.60;;
9370;SDS011;4725;48.384;8.984;2023-07-31T00:31:08;3.03;;;1.53;;
9370;SDS011;4725;48.384;8.984;2023-07-31T00:33:37;3.93;;;1.87;;
9370;SDS011;4725;48.384;8.984;2023-07-31T00:36:04;4.27;;;1.83;;
9370;SDS011;4725;48.384;8.984;2023-07-31T00:38:31;4.10;;;1.80;;
9370;SDS011;4725;48.384;8.984;2023-07-31T00:40:58;2.27;;;1.60;;
9370;SDS011;4725;48.384;8.984;2023-07-31T00:43:25;2.57;;;1.53;;
9370;SDS011;4725;48.384;8.984;2023-07-31T00:45:51;3.17;;;1.73;;
9370;SDS011;4725;48.384;8.984;2023-07-31T00:48:18;1.63;;;1.40;;
9370;SDS011;4725;48.384;8.984;2023-07-31T00:50:46;2.20;;;1.60;;
9370;SDS011;4725;48.384;8.984;2023-07-31T00:53:13;4.40;;;1.40;;
9370;SDS011;4725;48.384;8.984;2023-07-31T00:55:40;3.73;;;1.77;;
9370;SDS011;4725;48.384;8.984;2023-07-31T00:58:08;5.60;;;1.60;;
9370;SDS011;4725;48.384;8.984;2023-07-31T01:00:35;5.50;;;1.60;;
9370;SDS011;4725;48.384;8.984;2023-07-31T01:03:02;4.50;;;1.40;;
9370;SDS011;4725;48.384;8.984;2023-07-31T01:05:33;2.30;;;1.50;;
9370;SDS011;4725;48.384;8.984;2023-07-31T01:08:12;1.87;;;1.40;;
9370;SDS011;4725;48.384;8.984;2023-07-31T01:10:54;2.83;;;1.67;;
9370;SDS011;4725;48.384;8.984;2023-07-31T01:13:25;1.63;;;1.40;;
9370;SDS011;4725;48.384;8.984;2023-07-31T01:15:54;2.47;;;1.40;;
9370;SDS011;4725;48.384;8.984;2023-07-31T01:18:20;2.03;;;1.37;;
9370;SDS011;4725;48.384;8.984;2023-07-31T01:20:49;4.57;;;1.43;;
9370;SDS011;4725;48.384;8.984;2023-07-31T01:23:43;2.80;;;1.50;;
9370;SDS011;4725;48.384;8.984;2023-07-31T01:26:35;2.13;;;1.90;;
9370;SDS011;4725;48.384;8.984;2023-07-31T01:29:07;2.33;;;1.53;;
9370;SDS011;4725;48.384;8.984;2023-07-31T01:31:39;3.00;;;1.77;;
9370;SDS011;4725;48.384;8.984;2023-07-31T01:34:08;5.57;;;1.33;;
9370;SDS011;4725;48.384;8.984;2023-07-31T01:36:36;4.00;;;1.53;;
9370;SDS011;4725;48.384;8.984;2023-07-31T01:39:03;3.83;;;1.57;;
9370;SDS011;4725;48.384;8.984;2023-07-31T01:41:30;4.43;;;1.80;;
9370;SDS011;4725;48.384;8.984;2023-07-31T01:43:58;4.27;;;1.97;;
9370;SDS011;4725;48.384;8.984;2023-07-31T01:46:25;4.77;;;1.90;;
9370;SDS011;4725;48.384;8.984;2023-07-31T01:48:52;2.70;;;1.70;;
9370;SDS011;4725;48.384;8.984;2023-07-31T01:51:18;4.30;;;1.50;;
9370;SDS011;4725;48.384;8.984;2023-07-31T01:53:45;2.57;;;1.60;;
9370;SDS011;4725;48.384;8.984;2023-07-31T01:56:12;4.60;;;1.60;;
9370;SDS011;4725;48.384;8.984;2023-07-31T01:58:39;4.03;;;1.63;;
9370;SDS011;4725;48.384;8.984;2023-07-31T02:01:07;6.60;;;1.90;;
9370;SDS011;4725;48.384;8.984;2023-07-31T02:03:34;3.67;;;1.90;;
9370;SDS011;4725;48.384;8.984;2023-07-31T02:06:01;3.20;;;1.70;;
9370;SDS011;4725;48.384;8.984;2023-07-31T02:08:28;5.40;;;2.10;;
9370;SDS011;4725;48.384;8.984;2023-07-31T02:10:55;4.83;;;1.90;;
9370;SDS011;4725;48.384;8.984;2023-07-31T02:13:22;2.33;;;1.47;;
9370;SDS011;4725;48.384;8.984;2023-07-31T02:15:49;2.40;;;1.60;;
9370;SDS011;4725;48.384;8.984;2023-07-31T02:18:18;2.90;;;1.60;;
9370;SDS011;4725;48.384;8.984;2023-07-31T02:20:48;3.40;;;1.50;;
9370;SDS011;4725;48.384;8.984;2023-07-31T02:23:16;5.03;;;1.67;;
9370;SDS011;4725;48.384;8.984;2023-07-31T02:25:42;5.93;;;1.50;;
9370;SDS011;4725;48.384;8.984;2023-07-31T02:28:09;5.57;;;1.90;;
9370;SDS011;4725;48.384;8.984;2023-07-31T02:30:36;2.53;;;1.50;;
9370;SDS011;4725;48.384;8.984;2023-07-31T02:33:03;2.90;;;1.80;;
9370;SDS011;4725;48.384;8.984;2023-07-31T02:35:31;5.00;;;1.77;;
9370;SDS011;4725;48.384;8.984;2023-07-31T02:37:58;3.03;;;1.57;;
9370;SDS011;4725;48.384;8.984;2023-07-31T02:40:25;4.47;;;1.67;;
9370;SDS011;4725;48.384;8.984;2023-07-31T02:42:52;2.57;;;1.80;;
9370;SDS011;4725;48.384;8.984;2023-07-31T02:45:19;1.97;;;1.60;;
9370;SDS011;4725;48.384;8.984;2023-07-31T02:47:46;2.47;;;1.70;;
9370;SDS011;4725;48.384;8.984;2023-07-31T02:50:14;1.57;;;1.40;;
9370;SDS011;4725;48.384;8.984;2023-07-31T02:52:42;5.47;;;1.80;;
9370;SDS011;4725;48.384;8.984;2023-07-31T02:55:09;4.67;;;1.90;;
9370;SDS011;4725;48.384;8.984;2023-07-31T02:57:36;2.37;;;1.90;;
9370;SDS011;4725;48.384;8.984;2023-07-31T03:00:03;2.97;;;1.73;;
9370;SDS011;4725;48.384;8.984;2023-07-31T03:02:31;6.60;;;1.60;;
9370;SDS011;4725;48.384;8.984;2023-07-31T03:04:58;3.27;;;1.70;;
9370;SDS011;4725;48.384;8.984;2023-07-31T03:07:25;2.30;;;1.43;;
9370;SDS011;4725;48.384;8.984;2023-07-31T03:09:53;5.57;;;1.80;;
9370;SDS011;4725;48.384;8.984;2023-07-31T03:12:20;2.97;;;1.50;;
9370;SDS011;4725;48.384;8.984;2023-07-31T03:14:47;6.97;;;1.70;;
9370;SDS011;4725;48.384;8.984;2023-07-31T03:17:14;3.30;;;1.67;;
9370;SDS011;4725;48.384;8.984;2023-07-31T03:19:41;1.93;;;1.70;;
9370;SDS011;4725;48.384;8.984;2023-07-31T03:22:08;5.70;;;1.93;;
9370;SDS011;4725;48.384;8.984;2023-07-31T03:24:35;3.50;;;1.83;;
9370;SDS011;4725;48.384;8.984;2023-07-31T03:27:03;3.70;;;1.80;;
9370;SDS011;4725;48.384;8.984;2023-07-31T03:29:31;6.43;;;1.90;;
9370;SDS011;4725;48.384;8.984;2023-07-31T03:31:58;2.57;;;1.60;;
9370;SDS011;4725;48.384;8.984;2023-07-31T03:34:25;3.20;;;1.80;;
9370;SDS011;4725;48.384;8.984;2023-07-31T03:36:51;5.07;;;2.07;;
9370;SDS011;4725;48.384;8.984;2023-07-31T03:39:18;3.93;;;1.63;;
9370;SDS011;4725;48.384;8.984;2023-07-31T03:41:46;2.07;;;1.60;;
9370;SDS011;4725;48.384;8.984;2023-07-31T03:44:14;4.27;;;1.90;;
9370;SDS011;4725;48.384;8.984;2023-07-31T03:46:41;3.60;;;2.00;;
9370;SDS011;4725;48.384;8.984;2023-07-31T03:49:08;4.20;;;1.83;;
9370;SDS011;4725;48.384;8.984;2023-07-31T03:51:35;2.17;;;1.70;;
9370;SDS011;4725;48.384;8.984;2023-07-31T03:54:02;3.67;;;2.03;;
9370;SDS011;4725;48.384;8.984;2023-07-31T03:56:29;3.20;;;2.27;;
9370;SDS011;4725;48.384;8.984;2023-07-31T03:58:56;3.87;;;1.90;;
9370;SDS011;4725;48.384;8.984;2023-07-31T04:01:24;6.43;;;2.00;;
9370;SDS011;4725;48.384;8.984;2023-07-31T04:03:52;3.20;;;1.90;;
9370;SDS011;4725;48.384;8.984;2023-07-31T04:06:19;2.53;;;1.13;;
9370;SDS011;4725;48.384;8.984;2023-07-31T04:08:46;2.67;;;1.70;;
9370;SDS011;4725;48.384;8.984;2023-07-31T04:11:13;4.60;;;1.63;;
9370;SDS011;4725;48.384;8.984;2023-07-31T04:13:40;3.07;;;1.80;;
9370;SDS011;4725;48.384;8.984;2023-07-31T04:16:07;2.83;;;1.60;;
9370;SDS011;4725;48.384;8.984;2023-07-31T04:18:35;4.17;;;1.60;;
9370;SDS011;4725;48.384;8.984;2023-07-31T04:21:02;3.97;;;1.50;;
9370;SDS011;4725;48.384;8.984;2023-07-31T04:23:29;5.10;;;1.77;;
9370;SDS011;4725;48.384;8.984;2023-07-31T04:25:56;4.93;;;1.67;;
9370;SDS011;4725;48.384;8.984;2023-07-31T04:28:23;2.67;;;1.80;;
9370;SDS011;4725;48.384;8.984;2023-07-31T04:30:51;3.50;;;1.60;;
9370;SDS011;4725;48.384;8.984;2023-07-31T04:33:18;1.60;;;1.50;;
9370;SDS011;4725;48.384;8.984;2023-07-31T04:35:49;2.83;;;1.60;;
9370;SDS011;4725;48.384;8.984;2023-07-31T04:38:18;4.43;;;1.70;;
9370;SDS011;4725;48.384;8.984;2023-07-31T04:40:45;7.93;;;2.13;;
9370;SDS011;4725;48.384;8.984;2023-07-31T04:43:12;5.37;;;2.10;;
9370;SDS011;4725;48.384;8.984;2023-07-31T04:45:38;3.40;;;1.80;;
9370;SDS011;4725;48.384;8.984;2023-07-31T04:48:05;3.17;;;1.77;;
9370;SDS011;4725;48.384;8.984;2023-07-31T04:50:32;3.67;;;2.03;;
9370;SDS011;4725;48.384;8.984;2023-07-31T04:53:00;2.83;;;1.77;;
9370;SDS011;4725;48.384;8.984;2023-07-31T04:55:27;4.27;;;1.87;;
9370;SDS011;4725;48.384;8.984;2023-07-31T04:57:54;3.90;;;2.10;;
9370;SDS011;4725;48.384;8.984;2023-07-31T05:00:21;2.60;;;1.70;;
9370;SDS011;4725;48.384;8.984;2023-07-31T05:02:48;3.87;;;1.93;;
9370;SDS011;4725;48.384;8.984;2023-07-31T05:05:14;5.27;;;2.03;;
9370;SDS011;4725;48.384;8.984;2023-07-31T05:07:41;3.90;;;1.70;;
9370;SDS011;4725;48.384;8.984;2023-07-31T05:10:10;4.50;;;1.70;;
9370;SDS011;4725;48.384;8.984;2023-07-31T05:12:37;2.70;;;1.67;;
9370;SDS011;4725;48.384;8.984;2023-07-31T05:15:04;3.37;;;1.53;;
9370;SDS011;4725;48.384;8.984;2023-07-31T05:17:31;3.70;;;1.87;;
9370;SDS011;4725;48.384;8.984;2023-07-31T05:19:58;2.43;;;1.60;;
9370;SDS011;4725;48.384;8.984;2023-07-31T05:22:25;2.87;;;1.83;;
9370;SDS011;4725;48.384;8.984;2023-07-31T05:24:52;5.90;;;1.60;;
9370;SDS011;4725;48.384;8.984;2023-07-31T05:27:20;4.07;;;1.80;;
9370;SDS011;4725;48.384;8.984;2023-07-31T05:29:47;4.57;;;1.50;;
9370;SDS011;4725;48.384;8.984;2023-07-31T05:32:14;2.07;;;1.50;;
9370;SDS011;4725;48.384;8.984;2023-07-31T05:34:41;2.77;;;1.60;;
9370;SDS011;4725;48.384;8.984;2023-07-31T05:37:09;5.43;;;1.70;;
9370;SDS011;4725;48.384;8.984;2023-07-31T05:39:36;2.03;;;1.50;;
9370;SDS011;4725;48.384;8.984;2023-07-31T05:42:03;4.13;;;1.48;;
9370;SDS011;4725;48.384;8.984;2023-07-31T05:44:32;3.25;;;1.90;;
9370;SDS011;4725;48.384;8.984;2023-07-31T05:46:59;7.93;;;1.80;;
9370;SDS011;4725;48.384;8.984;2023-07-31T05:49:26;5.18;;;1.98;;
9370;SDS011;4725;48.384;8.984;2023-07-31T05:51:53;8.90;;;1.83;;
9370;SDS011;4725;48.384;8.984;2023-07-31T05:54:20;2.70;;;1.95;;
9370;SDS011;4725;48.384;8.984;2023-07-31T05:56:47;4.70;;;2.17;;
9370;SDS011;4725;48.384;8.984;2023-07-31T05:59:14;2.55;;;1.70;;
9370;SDS011;4725;48.384;8.984;2023-07-31T06:01:43;2.47;;;1.67;;
9370;SDS011;4725;48.384;8.984;2023-07-31T06:04:10;4.20;;;1.90;;
9370;SDS011;4725;48.384;8.984;2023-07-31T06:06:37;3.35;;;2.00;;
9370;SDS011;4725;48.384;8.984;2023-07-31T06:09:04;4.20;;;1.67;;
9370;SDS011;4725;48.384;8.984;2023-07-31T06:11:32;5.15;;;1.92;;
9370;SDS011;4725;48.384;8.984;2023-07-31T06:13:59;2.85;;;1.90;;
9370;SDS011;4725;48.384;8.984;2023-07-31T06:16:26;2.60;;;1.67;;
9370;SDS011;4725;48.384;8.984;2023-07-31T06:18:54;2.42;;;1.75;;
9370;SDS011;4725;48.384;8.984;2023-07-31T06:21:21;3.88;;;2.00;;
9370;SDS011;4725;48.384;8.984;2023-07-31T06:23:48;3.88;;;1.60;;
9370;SDS011;4725;48.384;8.984;2023-07-31T06:26:15;5.18;;;1.50;;
9370;SDS011;4725;48.384;8.984;2023-07-31T06:28:41;3.92;;;1.83;;
9370;SDS011;4725;48.384;8.984;2023-07-31T06:31:08;7.72;;;1.90;;
9370;SDS011;4725;48.384;8.984;2023-07-31T06:33:36;4.88;;;2.17;;
9370;SDS011;4725;48.384;8.984;2023-07-31T06:36:04;4.72;;;2.10;;
9370;SDS011;4725;48.384;8.984;2023-07-31T06:38:31;6.75;;;1.80;;
9370;SDS011;4725;48.384;8.984;2023-07-31T06:40:58;10.25;;;2.10;;
9370;SDS011;4725;48.384;8.984;2023-07-31T06:43:24;4.28;;;1.92;;
9370;SDS011;4725;48.384;8.984;2023-07-31T06:45:51;3.15;;;1.80;;
9370;SDS011;4725;48.384;8.984;2023-07-31T06:48:18;5.68;;;2.63;;
9370;SDS011;4725;48.384;8.984;2023-07-31T06:50:45;9.82;;;2.05;;
9370;SDS011;4725;48.384;8.984;2023-07-31T06:53:13;8.70;;;2.08;;
9370;SDS011;4725;48.384;8.984;2023-07-31T06:55:40;5.07;;;2.67;;
9370;SDS011;4725;48.384;8.984;2023-07-31T06:58:07;2.70;;;1.52;;
9370;SDS011;4725;48.384;8.984;2023-07-31T07:00:34;2.58;;;2.10;;
9370;SDS011;4725;48.384;8.984;2023-07-31T07:03:00;2.97;;;1.73;;
9370;SDS011;4725;48.384;8.984;2023-07-31T07:05:27;4.32;;;1.85;;
9370;SDS011;4725;48.384;8.984;2023-07-31T07:07:54;4.35;;;1.52;;
9370;SDS011;4725;48.384;8.984;2023-07-31T07:10:22;12.02;;;2.20;;
9370;SDS011;4725;48.384;8.984;2023-07-31T07:12:49;3.05;;;1.92;;
9370;SDS011;4725;48.384;8.984;2023-07-31T07:15:16;3.83;;;2.10;;
9370;SDS011;4725;48.384;8.984;2023-07-31T07:17:43;4.85;;;2.03;;
9370;SDS011;4725;48.384;8.984;2023-07-31T07:20:10;2.95;;;1.60;;
9370;SDS011;4725;48.384;8.984;2023-07-31T07:22:37;3.45;;;1.80;;
9370;SDS011;4725;48.384;8.984;2023-07-31T07:25:04;4.60;;;1.90;;
9370;SDS011;4725;48.384;8.984;2023-07-31T07:27:33;4.53;;;1.80;;
9370;SDS011;4725;48.384;8.984;2023-07-31T07:30:00;6.82;;;1.70;;
9370;SDS011;4725;48.384;8.984;2023-07-31T07:32:27;6.18;;;2.38;;
9370;SDS011;4725;48.384;8.984;2023-07-31T07:34:55;4.63;;;2.13;;
9370;SDS011;4725;48.384;8.984;2023-07-31T07:37:22;3.13;;;1.95;;
9370;SDS011;4725;48.384;8.984;2023-07-31T07:39:49;3.40;;;2.00;;
9370;SDS011;4725;48.384;8.984;2023-07-31T07:42:15;4.28;;;2.30;;
9370;SDS011;4725;48.384;8.984;2023-07-31T07:44:44;5.78;;;2.17;;
9370;SDS011;4725;48.384;8.984;2023-07-31T07:47:11;3.58;;;1.90;;
9370;SDS011;4725;48.384;8.984;2023-07-31T07:49:38;3.72;;;2.15;;
9370;SDS011;4725;48.384;8.984;2023-07-31T07:52:05;4.03;;;2.20;;
9370;SDS011;4725;48.384;8.984;2023-07-31T07:54:32;5.38;;;2.30;;
9370;SDS011;4725;48.384;8.984;2023-07-31T07:56:59;4.90;;;1.98;;
9370;SDS011;4725;48.384;8.984;2023-07-31T07:59:26;5.07;;;2.08;;
9370;SDS011;4725;48.384;8.984;2023-07-31T08:01:54;3.75;;;1.73;;
9370;SDS011;4725;48.384;8.984;2023-07-31T08:04:22;4.25;;;2.00;;
9370;SDS011;4725;48.384;8.984;2023-07-31T08:06:49;3.10;;;1.83;;
9370;SDS011;4725;48.384;8.984;2023-07-31T08:09:16;6.53;;;2.33;;
9370;SDS011;4725;48.384;8.984;2023-07-31T08:11:43;3.05;;;1.52;;
9370;SDS011;4725;48.384;8.984;2023-07-31T08:14:09;3.92;;;2.10;;
9370;SDS011;4725;48.384;8.984;2023-07-31T08:16:36;3.10;;;1.75;;
9370;SDS011;4725;48.384;8.984;2023-07-31T08:19:04;4.55;;;1.98;;
9370;SDS011;4725;48.384;8.984;2023-07-31T08:21:31;5.43;;;1.88;;
9370;SDS011;4725;48.384;8.984;2023-07-31T08:23:59;4.30;;;1.92;;
9370;SDS011;4725;48.384;8.984;2023-07-31T08:26:26;7.05;;;2.20;;
9370;SDS011;4725;48.384;8.984;2023-07-31T08:28:52;4.20;;;2.20;;
9370;SDS011;4725;48.384;8.984;2023-07-31T08:31:19;4.50;;;2.22;;
9370;SDS011;4725;48.384;8.984;2023-07-31T08:33:46;5.75;;;2.53;;
9370;SDS011;4725;48.384;8.984;2023-07-31T08:36:14;5.75;;;2.40;;
9370;SDS011;4725;48.384;8.984;2023-07-31T08:38:41;7.50;;;2.35;;
9370;SDS011;4725;48.384;8.984;2023-07-31T08:41:08;5.38;;;2.00;;
9370;SDS011;4725;48.384;8.984;2023-07-31T08:43:35;5.25;;;2.17;;
9370;SDS011;4725;48.384;8.984;2023-07-31T08:46:04;5.75;;;2.28;;
9370;SDS011;4725;48.384;8.984;2023-07-31T08:48:31;4.60;;;2.00;;
9370;SDS011;4725;48.384;8.984;2023-07-31T08:50:58;4.78;;;2.22;;
9370;SDS011;4725;48.384;8.984;2023-07-31T08:53:26;4.20;;;2.08;;
9370;SDS011;4725;48.384;8.984;2023-07-31T08:55:53;6.20;;;2.08;;
9370;SDS011;4725;48.384;8.984;2023-07-31T08:58:22;5.85;;;2.42;;
9370;SDS011;4725;48.384;8.984;2023-07-31T09:00:51;4.03;;;2.40;;
9370;SDS011;4725;48.384;8.984;2023-07-31T09:03:18;3.88;;;1.98;;
9370;SDS011;4725;48.384;8.984;2023-07-31T09:05:47;3.85;;;2.22;;
9370;SDS011;4725;48.384;8.984;2023-07-31T09:08:15;4.20;;;2.35;;
9370;SDS011;4725;48.384;8.984;2023-07-31T09:10:46;4.18;;;2.92;;
9370;SDS011;4725;48.384;8.984;2023-07-31T09:13:15;6.13;;;2.90;;
9370;SDS011;4725;48.384;8.984;2023-07-31T09:15:43;4.65;;;2.40;;
9370;SDS011;4725;48.384;8.984;2023-07-31T09:18:11;4.82;;;2.53;;
9370;SDS011;4725;48.384;8.984;2023-07-31T09:20:39;6.30;;;2.53;;
9370;SDS011;4725;48.384;8.984;2023-07-31T09:23:07;5.40;;;2.67;;
9370;SDS011;4725;48.384;8.984;2023-07-31T09:25:35;4.15;;;2.10;;
9370;SDS011;4725;48.384;8.984;2023-07-31T09:28:05;4.55;;;2.72;;
9370;SDS011;4725;48.384;8.984;2023-07-31T09:30:43;4.65;;;2.22;;
9370;SDS011;4725;48.384;8.984;2023-07-31T09:33:12;7.90;;;2.55;;
9370;SDS011;4725;48.384;8.984;2023-07-31T09:35:38;4.65;;;2.08;;
9370;SDS011;4725;48.384;8.984;2023-07-31T09:38:06;3.35;;;2.10;;
9370;SDS011;4725;48.384;8.984;2023-07-31T09:40:36;5.22;;;2.50;;
9370;SDS011;4725;48.384;8.984;2023-07-31T09:43:06;4.78;;;2.25;;
9370;SDS011;4725;48.384;8.984;2023-07-31T09:45:35;5.57;;;2.65;;
9370;SDS011;4725;48.384;8.984;2023-07-31T09:48:03;4.63;;;2.58;;
9370;SDS011;4725;48.384;8.984;2023-07-31T09:50:34;4.93;;;2.05;;
9370;SDS011;4725;48.384;8.984;2023-07-31T09:53:03;3.60;;;2.13;;
9370;SDS011;4725;48.384;8.984;2023-07-31T09:55:30;3.00;;;2.10;;
9370;SDS011;4725;48.384;8.984;2023-07-31T09:57:57;4.78;;;2.50;;
9370;SDS011;4725;48.384;8.984;2023-07-31T10:00:26;7.28;;;2.67;;
9370;SDS011;4725;48.384;8.984;2023-07-31T10:02:53;6.40;;;2.40;;
9370;SDS011;4725;48.384;8.984;2023-07-31T10:05:24;4.13;;;2.75;;
9370;SDS011;4725;48.384;8.984;2023-07-31T10:08:00;3.50;;;2.33;;
9370;SDS011;4725;48.384;8.984;2023-07-31T10:10:27;4.43;;;2.47;;
9370;SDS011;4725;48.384;8.984;2023-07-31T10:12:54;7.63;;;2.90;;
9370;SDS011;4725;48.384;8.984;2023-07-31T10:15:22;4.55;;;2.53;;
9370;SDS011;4725;48.384;8.984;2023-07-31T10:17:51;5.45;;;2.63;;
9370;SDS011;4725;48.384;8.984;2023-07-31T10:20:19;3.53;;;2.10;;
9370;SDS011;4725;48.384;8.984;2023-07-31T10:22:47;2.92;;;2.42;;
9370;SDS011;4725;48.384;8.984;2023-07-31T10:25:15;4.55;;;2.70;;
9370;SDS011;4725;48.384;8.984;2023-07-31T10:27:42;4.78;;;2.72;;
9370;SDS011;4725;48.384;8.984;2023-07-31T10:30:10;5.90;;;2.58;;
9370;SDS011;4725;48.384;8.984;2023-07-31T10:32:40;6.75;;;3.15;;
9370;SDS011;4725;48.384;8.984;2023-07-31T10:35:10;3.72;;;2.63;;
9370;SDS011;4725;48.384;8.984;2023-07-31T10:37:39;3.83;;;2.47;;
9370;SDS011;4725;48.384;8.984;2023-07-31T10:40:09;3.88;;;2.40;;
9370;SDS011;4725;48.384;8.984;2023-07-31T10:42:38;3.85;;;2.70;;
9370;SDS011;4725;48.384;8.984;2023-07-31T10:45:13;3.60;;;2.30;;
9370;SDS011;4725;48.384;8.984;2023-07-31T10:47:49;3.38;;;2.35;;
9370;SDS011;4725;48.384;8.984;2023-07-31T10:50:27;3.05;;;1.90;;
9370;SDS011;4725;48.384;8.984;2023-07-31T10:52:55;2.58;;;2.20;;
9370;SDS011;4725;48.384;8.984;2023-07-31T10:55:24;4.22;;;2.40;;
9370;SDS011;4725;48.384;8.984;2023-07-31T10:57:53;5.20;;;2.13;;
9370;SDS011;4725;48.384;8.984;2023-07-31T11:00:22;4.53;;;2.10;;
9370;SDS011;4725;48.384;8.984;2023-07-31T11:02:58;2.75;;;2.00;;
9370;SDS011;4725;48.384;8.984;2023-07-31T11:05:46;3.92;;;2.33;;
9370;SDS011;4725;48.384;8.984;2023-07-31T11:08:19;6.18;;;2.25;;
9370;SDS011;4725;48.384;8.984;2023-07-31T11:10:48;4.70;;;2.65;;
9370;SDS011;4725;48.384;8.984;2023-07-31T11:13:17;4.80;;;2.20;;
9370;SDS011;4725;48.384;8.984;2023-07-31T11:15:44;2.80;;;2.15;;
9370;SDS011;4725;48.384;8.984;2023-07-31T11:18:11;3.47;;;2.40;;
9370;SDS011;4725;48.384;8.984;2023-07-31T11:20:38;6.35;;;2.88;;
9370;SDS011;4725;48.384;8.984;2023-07-31T11:23:07;3.38;;;2.47;;
9370;SDS011;4725;48.384;8.984;2023-07-31T11:25:35;4.60;;;2.75;;
9370;SDS011;4725;48.384;8.984;2023-07-31T11:28:05;4.32;;;2.30;;
9370;SDS011;4725;48.384;8.984;2023-07-31T11:30:33;4.10;;;2.42;;
9370;SDS011;4725;48.384;8.984;2023-07-31T11:33:01;2.17;;;1.98;;
9370;SDS011;4725;48.384;8.984;2023-07-31T11:35:29;2.70;;;2.25;;
9370;SDS011;4725;48.384;8.984;2023-07-31T11:37:57;3.72;;;2.28;;
9370;SDS011;4725;48.384;8.984;2023-07-31T11:40:25;2.83;;;2.17;;
9370;SDS011;4725;48.384;8.984;2023-07-31T11:42:55;8.82;;;2.58;;
9370;SDS011;4725;48.384;8.984;2023-07-31T11:45:24;2.70;;;2.38;;
9370;SDS011;4725;48.384;8.984;2023-07-31T11:47:53;3.70;;;2.15;;
9370;SDS011;4725;48.384;8.984;2023-07-31T11:50:21;3.30;;;2.25;;
9370;SDS011;4725;48.384;8.984;2023-07-31T11:52:50;3.97;;;2.60;;
9370;SDS011;4725;48.384;8.984;2023-07-31T11:55:20;3.05;;;2.08;;
9370;SDS011;4725;48.384;8.984;2023-07-31T11:57:48;4.70;;;2.53;;
9370;SDS011;4725;48.384;8.984;2023-07-31T12:00:16;3.35;;;2.58;;
9370;SDS011;4725;48.384;8.984;2023-07-31T12:02:43;4.00;;;2.60;;
9370;SDS011;4725;48.384;8.984;2023-07-31T12:05:11;4.97;;;2.67;;
9370;SDS011;4725;48.384;8.984;2023-07-31T12:07:45;4.82;;;2.70;;
9370;SDS011;4725;48.384;8.984;2023-07-31T12:10:23;3.80;;;2.78;;
9370;SDS011;4725;48.384;8.984;2023-07-31T12:13:02;3.75;;;2.75;;
9370;SDS011;4725;48.384;8.984;2023-07-31T12:15:32;4.00;;;2.60;;
9370;SDS011;4725;48.384;8.984;2023-07-31T12:18:07;4.05;;;2.78;;
9370;SDS011;4725;48.384;8.984;2023-07-31T12:20:35;2.70;;;2.30;;
9370;SDS011;4725;48.384;8.984;2023-07-31T12:23:07;4.25;;;2.97;;
9370;SDS011;4725;48.384;8.984;2023-07-31T12:25:39;5.05;;;3.08;;
9370;SDS011;4725;48.384;8.984;2023-07-31T12:28:07;4.05;;;3.00;;
9370;SDS011;4725;48.384;8.984;2023-07-31T12:30:37;5.97;;;2.70;;
9370;SDS011;4725;48.384;8.984;2023-07-31T12:33:05;3.50;;;2.60;;
9370;SDS011;4725;48.384;8.984;2023-07-31T12:35:36;5.03;;;2.47;;
9370;SDS011;4725;48.384;8.984;2023-07-31T12:38:03;3.95;;;2.50;;
9370;SDS011;4725;48.384;8.984;2023-07-31T12:40:30;4.68;;;2.42;;
9370;SDS011;4725;48.384;8.984;2023-07-31T12:42:57;2.92;;;2.35;;
9370;SDS011;4725;48.384;8.984;2023-07-31T12:45:25;4.25;;;2.60;;
9370;SDS011;4725;48.384;8.984;2023-07-31T12:47:52;4.13;;;2.60;;
9370;SDS011;4725;48.384;8.984;2023-07-31T12:50:19;4.28;;;2.80;;
9370;SDS011;4725;48.384;8.984;2023-07-31T12:52:46;3.35;;;2.58;;
9370;SDS011;4725;48.384;8.984;2023-07-31T12:55:13;3.05;;;2.72;;
9370;SDS011;4725;48.384;8.984;2023-07-31T12:57:40;3.08;;;2.38;;
9370;SDS011;4725;48.384;8.984;2023-07-31T13:00:07;4.18;;;2.47;;
9370;SDS011;4725;48.384;8.984;2023-07-31T13:02:36;5.88;;;2.65;;
9370;SDS011;4725;48.384;8.984;2023-07-31T13:05:03;4.18;;;2.63;;
9370;SDS011;4725;48.384;8.984;2023-07-31T13:07:30;3.38;;;2.60;;
9370;SDS011;4725;48.384;8.984;2023-07-31T13:09:57;5.03;;;3.33;;
9370;SDS011;4725;48.384;8.984;2023-07-31T13:12:24;7.22;;;2.35;;
9370;SDS011;4725;48.384;8.984;2023-07-31T13:14:51;5.50;;;2.83;;
9370;SDS011;4725;48.384;8.984;2023-07-31T13:17:18;5.45;;;2.55;;
9370;SDS011;4725;48.384;8.984;2023-07-31T13:19:46;4.90;;;2.72;;
9370;SDS011;4725;48.384;8.984;2023-07-31T13:22:13;6.40;;;2.90;;
9370;SDS011;4725;48.384;8.984;2023-07-31T13:24:40;5.57;;;3.15;;
9370;SDS011;4725;48.384;8.984;2023-07-31T13:27:07;5.95;;;3.38;;
9370;SDS011;4725;48.384;8.984;2023-07-31T13:29:34;5.65;;;3.13;;
9370;SDS011;4725;48.384;8.984;2023-07-31T13:32:00;4.00;;;2.60;;
9370;SDS011;4725;48.384;8.984;2023-07-31T13:34:27;2.88;;;2.63;;
9370;SDS011;4725;48.384;8.984;2023-07-31T13:36:55;4.68;;;2.50;;
9370;SDS011;4725;48.384;8.984;2023-07-31T13:39:22;3.92;;;2.50;;
9370;SDS011;4725;48.384;8.984;2023-07-31T13:41:49;7.65;;;3.13;;
9370;SDS011;4725;48.384;8.984;2023-07-31T13:44:16;5.22;;;2.95;;
9370;SDS011;4725;48.384;8.984;2023-07-31T13:46:43;5.60;;;3.00;;
9370;SDS011;4725;48.384;8.984;2023-07-31T13:49:09;3.53;;;2.60;;
9370;SDS011;4725;48.384;8.984;2023-07-31T13:51:36;4.80;;;2.90;;
9370;SDS011;4725;48.384;8.984;2023-07-31T13:54:05;3.70;;;2.33;;
9370;SDS011;4725;48.384;8.984;2023-07-31T13:56:32;3.00;;;2.55;;
9370;SDS011;4725;48.384;8.984;2023-07-31T13:58:59;5.70;;;3.05;;
9370;SDS011;4725;48.384;8.984;2023-07-31T14:01:27;4.30;;;2.60;;
9370;SDS011;4725;48.384;8.984;2023-07-31T14:03:53;6.95;;;2.90;;
9370;SDS011;4725;48.384;8.984;2023-07-31T14:06:20;4.00;;;2.78;;
9370;SDS011;4725;48.384;8.984;2023-07-31T14:08:47;4.80;;;2.78;;
9370;SDS011;4725;48.384;8.984;2023-07-31T14:11:16;3.80;;;2.78;;
9370;SDS011;4725;48.384;8.984;2023-07-31T14:13:42;4.75;;;2.85;;
9370;SDS011;4725;48.384;8.984;2023-07-31T14:16:09;7.38;;;2.80;;
9370;SDS011;4725;48.384;8.984;2023-07-31T14:18:36;5.18;;;3.00;;
9370;SDS011;4725;48.384;8.984;2023-07-31T14:21:03;7.72;;;2.80;;
9370;SDS011;4725;48.384;8.984;2023-07-31T14:23:30;2.92;;;2.35;;
9370;SDS011;4725;48.384;8.984;2023-07-31T14:25:57;5.78;;;2.92;;
9370;SDS011;4725;48.384;8.984;2023-07-31T14:28:25;2.45;;;2.20;;
9370;SDS011;4725;48.384;8.984;2023-07-31T14:30:52;7.80;;;2.63;;
9370;SDS011;4725;48.384;8.984;2023-07-31T14:33:18;5.55;;;2.88;;
9370;SDS011;4725;48.384;8.984;2023-07-31T14:35:45;4.45;;;2.88;;
9370;SDS011;4725;48.384;8.984;2023-07-31T14:38:12;5.70;;;2.78;;
9370;SDS011;4725;48.384;8.984;2023-07-31T14:40:39;3.33;;;2.50;;
9370;SDS011;4725;48.384;8.984;2023-07-31T14:43:06;3.20;;;2.45;;
9370;SDS011;4725;48.384;8.984;2023-07-31T14:45:34;3.38;;;2.67;;
9370;SDS011;4725;48.384;8.984;2023-07-31T14:48:01;3.38;;;2.35;;
9370;SDS011;4725;48.384;8.984;2023-07-31T14:50:28;4.45;;;2.30;;
9370;SDS011;4725;48.384;8.984;2023-07-31T14:52:55;3.42;;;2.35;;
9370;SDS011;4725;48.384;8.984;2023-07-31T14:55:22;5.32;;;2.92;;
9370;SDS011;4725;48.384;8.984;2023-07-31T14:57:49;5.60;;;2.90;;
9370;SDS011;4725;48.384;8.984;2023-07-31T15:00:16;5.70;;;2.92;;
9370;SDS011;4725;48.384;8.984;2023-07-31T15:02:44;3.03;;;2.42;;
9370;SDS011;4725;48.384;8.984;2023-07-31T15:05:11;4.78;;;2.47;;
9370;SDS011;4725;48.384;8.984;2023-07-31T15:07:38;3.10;;;2.40;;
9370;SDS011;4725;48.384;8.984;2023-07-31T15:10:06;3.40;;;2.60;;
9370;SDS011;4725;48.384;8.984;2023-07-31T15:12:33;5.05;;;3.05;;
9370;SDS011;4725;48.384;8.984;2023-07-31T15:15:02;5.00;;;2.65;;
9370;SDS011;4725;48.384;8.984;2023-07-31T15:17:30;4.45;;;2.85;;
9370;SDS011;4725;48.384;8.984;2023-07-31T15:19:58;4.07;;;3.20;;